Private Wetterstation Sandau
Wetterdaten: Donnerstag, 16.02.2012
Datum Zeit Temp. A. Feuchte A. Luftdruck Regen Wind Richtung Richtung Taupunkt Windchill
16.02.2012 00:02 0,1 C 72 % 1013,8 hPa 0,0 l/m 1,8 km/h (1 Bft) NO 45 -4,3 C 0,1 C
16.02.2012 00:07 0,1 C 72 % 1013,8 hPa 0,0 l/m 3,6 km/h (1 Bft) N-NO 22 -4,3 C 0,1 C
16.02.2012 00:12 -0,1 C 72 % 1014,0 hPa 0,0 l/m 4,0 km/h (1 Bft) N 360 -4,5 C -0,1 C
16.02.2012 00:17 -0,1 C 72 % 1014,2 hPa 0,0 l/m 4,7 km/h (1 Bft) NO 45 -4,5 C -1,6 C
16.02.2012 00:22 -0,1 C 72 % 1014,1 hPa 0,0 l/m 5,0 km/h (1 Bft) NO 45 -4,5 C -1,7 C
16.02.2012 00:27 -0,1 C 72 % 1014,2 hPa 0,0 l/m 3,6 km/h (1 Bft) N-NW 337 -4,5 C -0,1 C
16.02.2012 00:32 -0,1 C 72 % 1014,4 hPa 0,0 l/m 5,0 km/h (1 Bft) O-NO 67 -4,5 C -1,7 C
16.02.2012 00:37 -0,2 C 72 % 1014,4 hPa 0,0 l/m 6,1 km/h (2 Bft) NW 315 -4,6 C -2,3 C
16.02.2012 00:42 -0,2 C 72 % 1014,4 hPa 0,0 l/m 2,5 km/h (1 Bft) N 360 -4,6 C -0,2 C
16.02.2012 00:47 -0,2 C 72 % 1014,5 hPa 0,0 l/m 2,2 km/h (1 Bft) NW 315 -4,6 C -0,2 C
16.02.2012 00:52 -0,4 C 73 % 1014,6 hPa 0,0 l/m 4,0 km/h (1 Bft) N 360 -4,6 C -0,4 C
16.02.2012 00:57 -0,5 C 73 % 1014,7 hPa 0,0 l/m 4,7 km/h (1 Bft) N-NW 337 -4,7 C -2,0 C
16.02.2012 01:02 -0,6 C 73 % 1014,9 hPa 0,0 l/m 0,0 km/h (0 Bft) O-NO 67 -4,8 C -0,6 C
16.02.2012 01:07 -0,6 C 74 % 1014,9 hPa 0,0 l/m 1,1 km/h (1 Bft) NW 315 -4,6 C -0,6 C
16.02.2012 01:12 -0,7 C 74 % 1015,0 hPa 0,0 l/m 0,0 km/h (0 Bft) NO 45 -4,7 C -0,7 C
16.02.2012 01:17 -0,6 C 74 % 1015,1 hPa 0,0 l/m 1,8 km/h (1 Bft) N-NW 337 -4,6 C -0,6 C
16.02.2012 01:22 -0,6 C 74 % 1015,3 hPa 0,0 l/m 3,2 km/h (1 Bft) NW 315 -4,6 C -0,6 C
16.02.2012 01:27 -0,7 C 74 % 1015,4 hPa 0,0 l/m 2,2 km/h (1 Bft) NW 315 -4,7 C -0,7 C
16.02.2012 01:32 -0,7 C 74 % 1015,2 hPa 0,0 l/m 2,5 km/h (1 Bft) W-NW 292 -4,7 C -0,7 C
16.02.2012 01:37 -0,8 C 74 % 1015,3 hPa 0,0 l/m 3,2 km/h (1 Bft) NW 315 -4,8 C -0,8 C
16.02.2012 01:42 -0,9 C 74 % 1015,5 hPa 0,0 l/m 3,2 km/h (1 Bft) NW 315 -4,9 C -0,9 C
16.02.2012 01:47 -1,0 C 75 % 1015,5 hPa 0,0 l/m 4,0 km/h (1 Bft) N-NW 337 -4,9 C -1,0 C
16.02.2012 01:52 -1,1 C 75 % 1015,7 hPa 0,0 l/m 4,0 km/h (1 Bft) NW 315 -5,0 C -1,1 C
16.02.2012 01:57 -1,1 C 75 % 1016,0 hPa 0,0 l/m 2,5 km/h (1 Bft) N-NW 337 -5,0 C -1,1 C
16.02.2012 02:02 -1,1 C 75 % 1015,7 hPa 0,0 l/m 3,6 km/h (1 Bft) W-NW 292 -5,0 C -1,1 C
16.02.2012 02:07 -1,2 C 76 % 1015,9 hPa 0,0 l/m 2,9 km/h (1 Bft) NW 315 -4,9 C -1,2 C
16.02.2012 02:12 -1,2 C 76 % 1015,9 hPa 0,0 l/m 2,9 km/h (1 Bft) NW 315 -4,9 C -1,2 C
16.02.2012 02:17 -1,2 C 76 % 1016,0 hPa 0,0 l/m 3,2 km/h (1 Bft) N-NW 337 -4,9 C -1,2 C
16.02.2012 02:22 -1,3 C 76 % 1016,3 hPa 0,0 l/m 2,5 km/h (1 Bft) W-NW 292 -5,0 C -1,3 C
16.02.2012 02:27 -1,3 C 76 % 1016,4 hPa 0,0 l/m 0,0 km/h (0 Bft) W-NW 292 -5,0 C -1,3 C
16.02.2012 02:32 -1,3 C 76 % 1016,3 hPa 0,0 l/m 3,6 km/h (1 Bft) N-NW 337 -5,0 C -1,3 C
16.02.2012 02:37 -1,3 C 76 % 1016,4 hPa 0,0 l/m 4,7 km/h (1 Bft) W-NW 292 -5,0 C -2,9 C
16.02.2012 02:42 -1,4 C 76 % 1016,6 hPa 0,0 l/m 2,9 km/h (1 Bft) NW 315 -5,1 C -1,4 C
16.02.2012 02:47 -1,5 C 76 % 1016,6 hPa 0,0 l/m 2,5 km/h (1 Bft) N-NO 22 -5,2 C -1,5 C
16.02.2012 02:52 -1,4 C 77 % 1016,4 hPa 0,0 l/m 3,2 km/h (1 Bft) N-NW 337 -4,9 C -1,4 C
16.02.2012 02:57 -1,5 C 77 % 1016,6 hPa 0,0 l/m 4,7 km/h (1 Bft) W-NW 292 -5,0 C -3,1 C
16.02.2012 03:02 -1,5 C 77 % 1016,7 hPa 0,0 l/m 2,9 km/h (1 Bft) NW 315 -5,0 C -1,5 C
16.02.2012 03:07 -1,6 C 77 % 1016,5 hPa 0,0 l/m 6,8 km/h (2 Bft) W-NW 292 -5,1 C -4,2 C
16.02.2012 03:12 -1,6 C 77 % 1016,7 hPa 0,0 l/m 1,8 km/h (1 Bft) W-NW 292 -5,1 C -1,6 C
16.02.2012 03:17 -1,6 C 77 % 1016,8 hPa 0,0 l/m 0,0 km/h (0 Bft) NW 315 -5,1 C -1,6 C
16.02.2012 03:22 -1,6 C 77 % 1016,9 hPa 0,0 l/m 2,2 km/h (1 Bft) W-NW 292 -5,1 C -1,6 C
16.02.2012 03:27 -1,6 C 77 % 1017,0 hPa 0,0 l/m 0,0 km/h (0 Bft) N-NW 337 -5,1 C -1,6 C
16.02.2012 03:32 -1,6 C 77 % 1017,0 hPa 0,0 l/m 3,6 km/h (1 Bft) N-NO 22 -5,1 C -1,6 C
16.02.2012 03:37 -1,6 C 77 % 1017,1 hPa 0,0 l/m 0,0 km/h (0 Bft) W-NW 292 -5,1 C -1,6 C
16.02.2012 03:42 -1,6 C 77 % 1017,2 hPa 0,0 l/m 4,0 km/h (1 Bft) NW 315 -5,1 C -1,6 C
16.02.2012 03:47 -1,6 C 77 % 1017,0 hPa 0,0 l/m 4,0 km/h (1 Bft) O-NO 67 -5,1 C -1,6 C
16.02.2012 03:52 -1,6 C 77 % 1017,2 hPa 0,0 l/m 6,1 km/h (2 Bft) N 360 -5,1 C -3,9 C
16.02.2012 03:57 -1,6 C 77 % 1017,3 hPa 0,0 l/m 4,0 km/h (1 Bft) W-NW 292 -5,1 C -1,6 C
16.02.2012 04:02 -1,6 C 77 % 1017,1 hPa 0,0 l/m 2,9 km/h (1 Bft) NW 315 -5,1 C -1,6 C
16.02.2012 04:07 -1,7 C 77 % 1017,4 hPa 0,0 l/m 6,5 km/h (2 Bft) NW 315 -5,2 C -4,2 C
16.02.2012 04:12 -1,8 C 77 % 1017,1 hPa 0,0 l/m 5,0 km/h (1 Bft) NO 45 -5,3 C -3,6 C
16.02.2012 04:17 -1,8 C 77 % 1017,3 hPa 0,0 l/m 5,4 km/h (1 Bft) N-NO 22 -5,3 C -3,8 C
16.02.2012 04:22 -1,8 C 77 % 1017,4 hPa 0,0 l/m 5,0 km/h (1 Bft) NW 315 -5,3 C -3,6 C
16.02.2012 04:27 -1,9 C 77 % 1017,4 hPa 0,0 l/m 3,2 km/h (1 Bft) N 360 -5,4 C -1,9 C
16.02.2012 04:32 -1,9 C 77 % 1017,5 hPa 0,0 l/m 1,8 km/h (1 Bft) N-NW 337 -5,4 C -1,9 C
16.02.2012 04:37 -1,9 C 77 % 1017,7 hPa 0,0 l/m 4,3 km/h (1 Bft) NW 315 -5,4 C -1,9 C
16.02.2012 04:42 -1,9 C 77 % 1017,5 hPa 0,0 l/m 2,5 km/h (1 Bft) NW 315 -5,4 C -1,9 C
16.02.2012 04:47 -2,1 C 78 % 1017,7 hPa 0,0 l/m 3,2 km/h (1 Bft) N-NO 22 -5,4 C -2,1 C
16.02.2012 04:52 -2,1 C 78 % 1017,6 hPa 0,0 l/m 2,5 km/h (1 Bft) NO 45 -5,4 C -2,1 C
16.02.2012 04:57 -2,1 C 78 % 1017,8 hPa 0,0 l/m 4,7 km/h (1 Bft) NW 315 -5,4 C -3,8 C
16.02.2012 05:02 -2,1 C 78 % 1017,9 hPa 0,0 l/m 2,5 km/h (1 Bft) N-NW 337 -5,4 C -2,1 C
16.02.2012 05:07 -2,2 C 78 % 1017,7 hPa 0,0 l/m 2,5 km/h (1 Bft) N 360 -5,5 C -2,2 C
16.02.2012 05:12 -2,2 C 78 % 1018,0 hPa 0,0 l/m 6,1 km/h (2 Bft) N-NW 337 -5,5 C -4,6 C
16.02.2012 05:17 -2,2 C 78 % 1018,2 hPa 0,0 l/m 4,0 km/h (1 Bft) NW 315 -5,5 C -2,2 C
16.02.2012 05:22 -2,2 C 78 % 1018,3 hPa 0,0 l/m 2,5 km/h (1 Bft) N-NO 22 -5,5 C -2,2 C
16.02.2012 05:27 -2,2 C 78 % 1018,5 hPa 0,0 l/m 4,7 km/h (1 Bft) NW 315 -5,5 C -3,9 C
16.02.2012 05:32 -2,2 C 78 % 1018,3 hPa 0,0 l/m 5,0 km/h (1 Bft) NW 315 -5,5 C -4,1 C
16.02.2012 05:37 -2,2 C 78 % 1018,5 hPa 0,0 l/m 2,9 km/h (1 Bft) NW 315 -5,5 C -2,2 C
16.02.2012 05:42 -2,2 C 78 % 1018,6 hPa 0,0 l/m 0,0 km/h (0 Bft) N-NO 22 -5,5 C -2,2 C
16.02.2012 05:47 -2,2 C 78 % 1018,6 hPa 0,0 l/m 6,8 km/h (2 Bft) NW 315 -5,5 C -4,9 C
16.02.2012 05:52 -2,4 C 78 % 1018,7 hPa 0,0 l/m 1,8 km/h (1 Bft) NW 315 -5,7 C -2,4 C
16.02.2012 05:57 -2,4 C 79 % 1018,5 hPa 0,0 l/m 2,5 km/h (1 Bft) NW 315 -5,5 C -2,4 C
16.02.2012 06:02 -2,4 C 79 % 1018,8 hPa 0,0 l/m 4,7 km/h (1 Bft) NW 315 -5,5 C -4,2 C
16.02.2012 06:07 -2,4 C 79 % 1018,9 hPa 0,0 l/m 0,0 km/h (0 Bft) NW 315 -5,5 C -2,4 C
16.02.2012 06:12 -2,5 C 79 % 1019,0 hPa 0,0 l/m 5,8 km/h (2 Bft) W-NW 292 -5,6 C -4,8 C
16.02.2012 06:17 -2,6 C 79 % 1019,0 hPa 0,0 l/m 2,5 km/h (1 Bft) NW 315 -5,7 C -2,6 C
16.02.2012 06:22 -2,6 C 80 % 1019,1 hPa 0,0 l/m 2,9 km/h (1 Bft) N 360 -5,6 C -2,6 C
16.02.2012 06:27 -2,5 C 80 % 1019,4 hPa 0,0 l/m 6,5 km/h (2 Bft) N-NW 337 -5,5 C -5,1 C
16.02.2012 06:32 -2,5 C 80 % 1019,3 hPa 0,0 l/m 3,2 km/h (1 Bft) NW 315 -5,5 C -2,5 C
16.02.2012 06:37 -2,5 C 80 % 1019,3 hPa 0,0 l/m 3,2 km/h (1 Bft) N 360 -5,5 C -2,5 C
16.02.2012 06:42 -2,5 C 80 % 1019,2 hPa 0,0 l/m 2,5 km/h (1 Bft) N 360 -5,5 C -2,5 C
16.02.2012 06:47 -2,5 C 80 % 1019,4 hPa 0,0 l/m 3,2 km/h (1 Bft) NW 315 -5,5 C -2,5 C
16.02.2012 06:52 -2,6 C 81 % 1019,3 hPa 0,0 l/m 2,9 km/h (1 Bft) N 360 -5,4 C -2,6 C
16.02.2012 06:57 -2,6 C 81 % 1019,4 hPa 0,0 l/m 2,5 km/h (1 Bft) NW 315 -5,4 C -2,6 C
16.02.2012 07:02 -2,5 C 81 % 1019,3 hPa 0,0 l/m 2,5 km/h (1 Bft) N 360 -5,3 C -2,5 C
16.02.2012 07:07 -2,5 C 81 % 1019,4 hPa 0,0 l/m 1,8 km/h (1 Bft) NW 315 -5,3 C -2,5 C
16.02.2012 07:12 -2,5 C 81 % 1019,4 hPa 0,0 l/m 4,7 km/h (1 Bft) N-NW 337 -5,3 C -4,3 C
16.02.2012 07:17 -2,6 C 81 % 1019,5 hPa 0,0 l/m 3,2 km/h (1 Bft) NW 315 -5,4 C -2,6 C
16.02.2012 07:22 -2,6 C 81 % 1019,7 hPa 0,0 l/m 4,3 km/h (1 Bft) NW 315 -5,4 C -2,6 C
16.02.2012 07:27 -2,6 C 81 % 1019,8 hPa 0,0 l/m 4,0 km/h (1 Bft) N-NW 337 -5,4 C -2,6 C
16.02.2012 07:32 -2,6 C 81 % 1019,8 hPa 0,0 l/m 3,6 km/h (1 Bft) W-NW 292 -5,4 C -2,6 C
16.02.2012 07:37 -2,6 C 81 % 1019,8 hPa 0,0 l/m 1,8 km/h (1 Bft) N-NO 22 -5,4 C -2,6 C
16.02.2012 07:42 -2,5 C 81 % 1020,0 hPa 0,0 l/m 2,5 km/h (1 Bft) W-NW 292 -5,3 C -2,5 C
16.02.2012 07:47 -2,5 C 82 % 1020,0 hPa 0,0 l/m 2,2 km/h (1 Bft) NW 315 -5,1 C -2,5 C
16.02.2012 07:52 -2,6 C 82 % 1020,2 hPa 0,0 l/m 0,0 km/h (0 Bft) NW 315 -5,2 C -2,6 C
16.02.2012 07:57 -2,6 C 82 % 1020,4 hPa 0,0 l/m 5,0 km/h (1 Bft) W-NW 292 -5,2 C -4,5 C
16.02.2012 08:02 -2,5 C 82 % 1020,3 hPa 0,0 l/m 0,0 km/h (0 Bft) NW 315 -5,1 C -2,5 C
16.02.2012 08:07 -2,5 C 82 % 1020,4 hPa 0,0 l/m 1,8 km/h (1 Bft) W-NW 292 -5,1 C -2,5 C
16.02.2012 08:12 -2,4 C 82 % 1020,5 hPa 0,0 l/m 1,1 km/h (1 Bft) N-NO 22 -5,0 C -2,4 C
16.02.2012 08:17 -2,4 C 82 % 1020,4 hPa 0,0 l/m 6,5 km/h (2 Bft) N-NW 337 -5,0 C -5,0 C
16.02.2012 08:22 -2,4 C 82 % 1020,7 hPa 0,0 l/m 6,1 km/h (2 Bft) W-NW 292 -5,0 C -4,8 C
16.02.2012 08:27 -2,4 C 82 % 1020,7 hPa 0,0 l/m 1,4 km/h (1 Bft) NW 315 -5,0 C -2,4 C
16.02.2012 08:32 -2,2 C 82 % 1020,6 hPa 0,0 l/m 3,2 km/h (1 Bft) NW 315 -4,8 C -2,2 C
16.02.2012 08:37 -2,2 C 82 % 1020,7 hPa 0,0 l/m 6,1 km/h (2 Bft) NW 315 -4,8 C -4,6 C
16.02.2012 08:42 -2,2 C 82 % 1020,6 hPa 0,0 l/m 1,8 km/h (1 Bft) NW 315 -4,8 C -2,2 C
16.02.2012 08:47 -2,1 C 82 % 1020,7 hPa 0,0 l/m 2,9 km/h (1 Bft) NW 315 -4,7 C -2,1 C
16.02.2012 08:52 -2,1 C 82 % 1020,5 hPa 0,0 l/m 3,2 km/h (1 Bft) NW 315 -4,7 C -2,1 C
16.02.2012 08:57 -2,1 C 82 % 1020,7 hPa 0,0 l/m 2,2 km/h (1 Bft) W-NW 292 -4,7 C -2,1 C
16.02.2012 09:02 -1,9 C 83 % 1020,9 hPa 0,0 l/m 3,6 km/h (1 Bft) W-NW 292 -4,4 C -1,9 C
16.02.2012 09:07 -1,7 C 83 % 1020,9 hPa 0,0 l/m 2,9 km/h (1 Bft) W-NW 292 -4,2 C -1,7 C
16.02.2012 09:12 -1,6 C 83 % 1020,7 hPa 0,0 l/m 0,0 km/h (0 Bft) O-NO 67 -4,1 C -1,6 C
16.02.2012 09:17 -1,5 C 83 % 1020,9 hPa 0,0 l/m 2,2 km/h (1 Bft) N-NO 22 -4,0 C -1,5 C
16.02.2012 09:22 -1,2 C 83 % 1020,9 hPa 0,0 l/m 6,1 km/h (2 Bft) NW 315 -3,7 C -3,4 C
16.02.2012 09:27 -1,1 C 82 % 1020,9 hPa 0,0 l/m 3,2 km/h (1 Bft) NW 315 -3,8 C -1,1 C
16.02.2012 09:32 -1,0 C 82 % 1020,7 hPa 0,0 l/m 4,0 km/h (1 Bft) W-NW 292 -3,7 C -1,0 C
16.02.2012 09:37 -0,9 C 82 % 1020,9 hPa 0,0 l/m 7,6 km/h (2 Bft) W-NW 292 -3,6 C -3,7 C
16.02.2012 09:42 -0,7 C 82 % 1021,0 hPa 0,0 l/m 2,9 km/h (1 Bft) NW 315 -3,4 C -0,7 C
16.02.2012 09:47 -0,7 C 81 % 1021,0 hPa 0,0 l/m 6,5 km/h (2 Bft) N-NO 22 -3,5 C -3,0 C
16.02.2012 09:52 -0,5 C 81 % 1021,1 hPa 0,0 l/m 2,9 km/h (1 Bft) N 360 -3,3 C -0,5 C
16.02.2012 09:57 -0,4 C 81 % 1021,3 hPa 0,0 l/m 4,3 km/h (1 Bft) W-NW 292 -3,3 C -0,4 C
16.02.2012 10:02 -0,4 C 81 % 1021,1 hPa 0,0 l/m 5,0 km/h (1 Bft) W-NW 292 -3,3 C -2,0 C
16.02.2012 10:07 -0,2 C 81 % 1021,3 hPa 0,0 l/m 3,2 km/h (1 Bft) N 360 -3,1 C -0,2 C
16.02.2012 10:12 -0,1 C 81 % 1021,4 hPa 0,0 l/m 6,1 km/h (2 Bft) W-NW 292 -3,0 C -2,2 C
16.02.2012 10:17 0,1 C 80 % 1021,5 hPa 0,0 l/m 4,0 km/h (1 Bft) NW 315 -2,9 C 0,1 C
16.02.2012 10:22 0,1 C 80 % 1021,5 hPa 0,0 l/m 5,4 km/h (1 Bft) W-NW 292 -2,9 C -1,7 C
16.02.2012 10:27 0,2 C 80 % 1021,5 hPa 0,0 l/m 4,0 km/h (1 Bft) W 270 -2,8 C 0,2 C
16.02.2012 10:32 0,4 C 79 % 1021,6 hPa 0,0 l/m 5,8 km/h (2 Bft) W 270 -2,8 C -1,5 C
16.02.2012 10:37 0,4 C 79 % 1021,7 hPa 0,0 l/m 5,8 km/h (2 Bft) W 270 -2,8 C -1,5 C
16.02.2012 10:42 0,5 C 79 % 1021,9 hPa 0,0 l/m 5,4 km/h (1 Bft) N-NW 337 -2,7 C -1,2 C
16.02.2012 10:47 0,7 C 78 % 1021,9 hPa 0,0 l/m 3,6 km/h (1 Bft) W-NW 292 -2,7 C 0,7 C
16.02.2012 10:52 0,8 C 78 % 1021,9 hPa 0,0 l/m 5,8 km/h (2 Bft) W-NW 292 -2,6 C -1,0 C
16.02.2012 10:57 0,9 C 77 % 1022,0 hPa 0,0 l/m 3,2 km/h (1 Bft) N-NW 337 -2,7 C 0,9 C
16.02.2012 11:02 0,9 C 76 % 1022,0 hPa 0,0 l/m 4,7 km/h (1 Bft) W-NW 292 -2,8 C -0,4 C
16.02.2012 11:07 1,1 C 76 % 1021,9 hPa 0,0 l/m 7,6 km/h (2 Bft) N-NW 337 -2,6 C -1,3 C
16.02.2012 11:12 1,3 C 75 % 1022,0 hPa 0,0 l/m 4,0 km/h (1 Bft) W-SW 247 -2,6 C 1,3 C
16.02.2012 11:17 1,3 C 75 % 1022,2 hPa 0,0 l/m 3,6 km/h (1 Bft) W 270 -2,6 C 1,3 C
16.02.2012 11:22 1,4 C 75 % 1022,2 hPa 0,0 l/m 5,4 km/h (1 Bft) W-NW 292 -2,5 C -0,2 C
16.02.2012 11:27 1,5 C 74 % 1022,3 hPa 0,0 l/m 5,4 km/h (1 Bft) W 270 -2,6 C -0,1 C
16.02.2012 11:32 1,6 C 74 % 1022,2 hPa 0,0 l/m 6,5 km/h (2 Bft) W-SW 247 -2,5 C -0,4 C
16.02.2012 11:37 1,7 C 74 % 1022,3 hPa 0,0 l/m 6,1 km/h (2 Bft) W 270 -2,4 C -0,1 C
16.02.2012 11:42 1,8 C 74 % 1022,4 hPa 0,0 l/m 7,2 km/h (2 Bft) W-NW 292 -2,3 C -0,4 C
16.02.2012 11:47 1,9 C 74 % 1022,4 hPa 0,0 l/m 9,0 km/h (2 Bft) W-NW 292 -2,2 C -0,8 C
16.02.2012 11:52 1,9 C 74 % 1022,2 hPa 0,0 l/m 7,2 km/h (2 Bft) W-NW 292 -2,2 C -0,3 C
16.02.2012 11:57 1,9 C 74 % 1022,3 hPa 0,0 l/m 2,5 km/h (1 Bft) W-SW 247 -2,2 C 1,9 C
16.02.2012 12:02 2,1 C 74 % 1022,3 hPa 0,0 l/m 11,2 km/h (2 Bft) W-NW 292 -2,0 C -1,1 C
16.02.2012 12:07 2,1 C 73 % 1022,0 hPa 0,0 l/m 6,8 km/h (2 Bft) W 270 -2,2 C 0,1 C
16.02.2012 12:12 2,1 C 73 % 1022,2 hPa 0,0 l/m 4,7 km/h (1 Bft) W-NW 292 -2,2 C 0,9 C
16.02.2012 12:17 2,2 C 73 % 1021,9 hPa 0,0 l/m 9,0 km/h (2 Bft) W-SW 247 -2,1 C -0,4 C
16.02.2012 12:22 2,3 C 72 % 1022,0 hPa 0,0 l/m 2,5 km/h (1 Bft) W-NW 292 -2,2 C 2,3 C
16.02.2012 12:27 2,4 C 72 % 1022,1 hPa 0,0 l/m 3,6 km/h (1 Bft) W-SW 247 -2,1 C 2,4 C
16.02.2012 12:32 2,4 C 72 % 1022,0 hPa 0,0 l/m 5,0 km/h (1 Bft) SW 225 -2,1 C 1,1 C
16.02.2012 12:37 2,5 C 72 % 1022,1 hPa 0,0 l/m 4,7 km/h (1 Bft) W 270 -2,0 C 1,4 C
16.02.2012 12:42 2,6 C 72 % 1021,9 hPa 0,0 l/m 8,3 km/h (2 Bft) W-SW 247 -1,9 C 0,2 C
16.02.2012 12:47 2,7 C 71 % 1021,8 hPa 0,0 l/m 14,0 km/h (3 Bft) W-SW 247 -2,0 C -0,9 C
16.02.2012 12:52 2,8 C 71 % 1021,7 hPa 0,0 l/m 5,4 km/h (1 Bft) W-SW 247 -1,9 C 1,4 C
16.02.2012 12:57 2,9 C 70 % 1021,7 hPa 0,0 l/m 6,5 km/h (2 Bft) W-SW 247 -2,0 C 1,1 C
16.02.2012 13:02 2,9 C 70 % 1021,6 hPa 0,0 l/m 8,6 km/h (2 Bft) W-SW 247 -2,0 C 0,5 C
16.02.2012 13:07 3,1 C 70 % 1021,8 hPa 0,0 l/m 9,7 km/h (2 Bft) W 270 -1,8 C 0,5 C
16.02.2012 13:12 3,1 C 70 % 1021,8 hPa 0,0 l/m 5,4 km/h (1 Bft) W-SW 247 -1,8 C 1,8 C
16.02.2012 13:17 3,2 C 70 % 1021,7 hPa 0,0 l/m 5,4 km/h (1 Bft) W-SW 247 -1,7 C 1,9 C
16.02.2012 13:22 3,2 C 70 % 1021,8 hPa 0,0 l/m 15,8 km/h (3 Bft) W-SW 247 -1,7 C -0,6 C
16.02.2012 13:27 3,3 C 70 % 1021,8 hPa 0,0 l/m 3,2 km/h (1 Bft) W 270 -1,6 C 3,3 C
16.02.2012 13:32 3,3 C 71 % 1021,8 hPa 0,0 l/m 0,0 km/h (0 Bft) W-SW 247 -1,4 C 3,3 C
16.02.2012 13:37 3,3 C 71 % 1021,6 hPa 0,0 l/m 6,1 km/h (2 Bft) W-SW 247 -1,4 C 1,7 C
16.02.2012 13:42 3,3 C 71 % 1021,6 hPa 0,0 l/m 10,8 km/h (2 Bft) W 270 -1,4 C 0,4 C
16.02.2012 13:47 3,3 C 72 % 1021,5 hPa 0,0 l/m 12,2 km/h (2 Bft) SW 225 -1,3 C 0,2 C
16.02.2012 13:52 3,3 C 72 % 1021,7 hPa 0,0 l/m 5,8 km/h (2 Bft) W 270 -1,3 C 1,8 C
16.02.2012 13:57 3,2 C 72 % 1021,5 hPa 0,0 l/m 13,7 km/h (3 Bft) W-SW 247 -1,3 C -0,2 C
16.02.2012 14:02 3,1 C 73 % 1021,6 hPa 0,0 l/m 5,0 km/h (1 Bft) W 270 -1,3 C 1,9 C
16.02.2012 14:07 3,1 C 73 % 1021,5 hPa 0,0 l/m 7,6 km/h (2 Bft) W-SW 247 -1,3 C 1,0 C
16.02.2012 14:12 3,1 C 73 % 1021,6 hPa 0,0 l/m 13,3 km/h (3 Bft) W-SW 247 -1,3 C -0,3 C
16.02.2012 14:17 3,1 C 73 % 1021,5 hPa 0,0 l/m 13,7 km/h (3 Bft) W-SW 247 -1,3 C -0,4 C
16.02.2012 14:22 3,2 C 73 % 1021,4 hPa 0,0 l/m 9,7 km/h (2 Bft) W-SW 247 -1,2 C 0,6 C
16.02.2012 14:27 3,3 C 72 % 1021,3 hPa 0,0 l/m 6,1 km/h (2 Bft) S-SW 202 -1,3 C 1,7 C
16.02.2012 14:32 3,4 C 72 % 1021,2 hPa 0,0 l/m 10,8 km/h (2 Bft) W-SW 247 -1,2 C 0,6 C
16.02.2012 14:37 3,5 C 72 % 1021,2 hPa 0,0 l/m 9,0 km/h (2 Bft) W 270 -1,1 C 1,1 C
16.02.2012 14:42 3,5 C 72 % 1021,2 hPa 0,0 l/m 7,2 km/h (2 Bft) W-SW 247 -1,1 C 1,6 C
16.02.2012 14:47 3,6 C 72 % 1021,2 hPa 0,0 l/m 14,4 km/h (3 Bft) W-SW 247 -1,0 C 0,1 C
16.02.2012 14:52 3,6 C 72 % 1021,1 hPa 0,0 l/m 15,5 km/h (3 Bft) W-SW 247 -1,0 C -0,1 C
16.02.2012 14:57 3,6 C 71 % 1021,1 hPa 0,0 l/m 16,9 km/h (3 Bft) W-SW 247 -1,2 C -0,3 C
16.02.2012 15:02 3,6 C 71 % 1021,0 hPa 0,0 l/m 10,8 km/h (2 Bft) W 270 -1,2 C 0,8 C
16.02.2012 15:07 3,6 C 71 % 1021,1 hPa 0,0 l/m 4,7 km/h (1 Bft) SW 225 -1,2 C 2,6 C
16.02.2012 15:12 3,6 C 72 % 1020,9 hPa 0,0 l/m 14,4 km/h (3 Bft) W-SW 247 -1,0 C 0,1 C
16.02.2012 15:17 3,6 C 72 % 1021,0 hPa 0,0 l/m 13,3 km/h (3 Bft) W-SW 247 -1,0 C 0,3 C
16.02.2012 15:22 3,7 C 73 % 1020,8 hPa 0,0 l/m 11,2 km/h (2 Bft) W-SW 247 -0,7 C 0,8 C
16.02.2012 15:27 3,8 C 73 % 1021,0 hPa 0,0 l/m 6,1 km/h (2 Bft) W 270 -0,6 C 2,3 C
16.02.2012 15:32 3,6 C 73 % 1020,8 hPa 0,0 l/m 8,3 km/h (2 Bft) W-SW 247 -0,8 C 1,4 C
16.02.2012 15:37 3,6 C 73 % 1020,8 hPa 0,0 l/m 13,0 km/h (3 Bft) W-SW 247 -0,8 C 0,4 C
16.02.2012 15:42 3,5 C 73 % 1020,9 hPa 0,0 l/m 6,8 km/h (2 Bft) W-SW 247 -0,9 C 1,7 C
16.02.2012 15:47 3,5 C 74 % 1020,8 hPa 0,0 l/m 6,5 km/h (2 Bft) S-SW 202 -0,7 C 1,8 C
16.02.2012 15:52 3,4 C 75 % 1020,5 hPa 0,0 l/m 9,7 km/h (2 Bft) SW 225 -0,6 C 0,8 C
16.02.2012 15:57 3,4 C 75 % 1020,7 hPa 0,0 l/m 14,4 km/h (3 Bft) S-SO 157 -0,6 C -0,1 C
16.02.2012 16:02 3,4 C 75 % 1020,6 hPa 0,0 l/m 8,3 km/h (2 Bft) SW 225 -0,6 C 1,2 C
16.02.2012 16:07 3,4 C 75 % 1020,7 hPa 0,0 l/m 8,3 km/h (2 Bft) W-SW 247 -0,6 C 1,2 C
16.02.2012 16:12 3,4 C 75 % 1020,8 hPa 0,0 l/m 12,2 km/h (2 Bft) W 270 -0,6 C 0,3 C
16.02.2012 16:17 3,3 C 75 % 1020,8 hPa 0,0 l/m 9,4 km/h (2 Bft) W 270 -0,7 C 0,8 C
16.02.2012 16:22 3,3 C 76 % 1020,8 hPa 0,0 l/m 7,2 km/h (2 Bft) SW 225 -0,5 C 1,4 C
16.02.2012 16:27 3,2 C 76 % 1020,7 hPa 0,0 l/m 8,3 km/h (2 Bft) SW 225 -0,6 C 0,9 C
16.02.2012 16:32 3,2 C 77 % 1020,6 hPa 0,0 l/m 8,6 km/h (2 Bft) W-SW 247 -0,4 C 0,9 C
16.02.2012 16:37 3,1 C 77 % 1020,7 hPa 0,0 l/m 16,6 km/h (3 Bft) W 270 -0,5 C -0,8 C
16.02.2012 16:42 3,1 C 78 % 1020,7 hPa 0,0 l/m 9,4 km/h (2 Bft) W-SW 247 -0,4 C 0,5 C
16.02.2012 16:47 3,0 C 78 % 1020,6 hPa 0,0 l/m 15,5 km/h (3 Bft) W-SW 247 -0,5 C -0,8 C
16.02.2012 16:52 2,9 C 78 % 1020,5 hPa 0,0 l/m 4,3 km/h (1 Bft) SW 225 -0,5 C 2,9 C
16.02.2012 16:57 2,9 C 78 % 1020,5 hPa 0,0 l/m 7,6 km/h (2 Bft) W 270 -0,5 C 0,8 C
16.02.2012 17:02 2,9 C 79 % 1020,5 hPa 0,0 l/m 7,9 km/h (2 Bft) W-SW 247 -0,4 C 0,7 C
16.02.2012 17:07 2,8 C 79 % 1020,4 hPa 0,0 l/m 4,0 km/h (1 Bft) W-SW 247 -0,5 C 2,8 C
16.02.2012 17:12 2,8 C 80 % 1020,4 hPa 0,0 l/m 8,3 km/h (2 Bft) W-SW 247 -0,3 C 0,5 C
16.02.2012 17:17 2,7 C 80 % 1020,3 hPa 0,0 l/m 2,5 km/h (1 Bft) SW 225 -0,4 C 2,7 C
16.02.2012 17:22 2,6 C 80 % 1020,3 hPa 0,0 l/m 5,8 km/h (2 Bft) W 270 -0,5 C 1,0 C
16.02.2012 17:27 2,6 C 81 % 1020,2 hPa 0,0 l/m 4,3 km/h (1 Bft) W-SW 247 -0,3 C 2,6 C
16.02.2012 17:32 2,5 C 81 % 1020,3 hPa 0,0 l/m 6,1 km/h (2 Bft) W-SW 247 -0,4 C 0,8 C
16.02.2012 17:37 2,4 C 82 % 1020,3 hPa 0,0 l/m 5,4 km/h (1 Bft) W 270 -0,4 C 1,0 C
16.02.2012 17:42 2,4 C 82 % 1020,1 hPa 0,0 l/m 5,0 km/h (1 Bft) W-SW 247 -0,4 C 1,1 C
16.02.2012 17:47 2,4 C 83 % 1020,2 hPa 0,0 l/m 7,6 km/h (2 Bft) W-SW 247 -0,2 C 0,2 C
16.02.2012 17:52 2,4 C 83 % 1020,1 hPa 0,0 l/m 11,2 km/h (2 Bft) W 270 -0,2 C -0,7 C
16.02.2012 17:57 2,3 C 84 % 1020,1 hPa 0,5 l/m 5,0 km/h (1 Bft) W-SW 247 -0,1 C 1,0 C
16.02.2012 18:02 2,3 C 84 % 1020,0 hPa 0,0 l/m 9,0 km/h (2 Bft) W-SW 247 -0,1 C -0,3 C
16.02.2012 18:07 2,3 C 84 % 1020,0 hPa 0,0 l/m 5,8 km/h (2 Bft) W-SW 247 -0,1 C 0,7 C
16.02.2012 18:12 2,3 C 84 % 1020,0 hPa 0,0 l/m 4,0 km/h (1 Bft) W-SW 247 -0,1 C 2,3 C
16.02.2012 18:17 2,3 C 85 % 1019,9 hPa 0,0 l/m 5,4 km/h (1 Bft) W-SW 247 0,0 C 0,9 C
16.02.2012 18:22 2,3 C 85 % 1019,6 hPa 0,0 l/m 6,1 km/h (2 Bft) S-SW 202 0,0 C 0,6 C
16.02.2012 18:27 2,3 C 85 % 1019,7 hPa 0,0 l/m 10,8 km/h (2 Bft) W-SW 247 0,0 C -0,8 C
16.02.2012 18:32 2,3 C 85 % 1019,7 hPa 0,5 l/m 4,0 km/h (1 Bft) S 180 0,0 C 2,3 C
16.02.2012 18:37 2,3 C 86 % 1019,6 hPa 0,0 l/m 9,4 km/h (2 Bft) S-SW 202 0,2 C -0,4 C
16.02.2012 18:42 2,3 C 86 % 1019,5 hPa 0,0 l/m 9,4 km/h (2 Bft) SW 225 0,2 C -0,4 C
16.02.2012 18:47 2,3 C 86 % 1019,5 hPa 0,0 l/m 8,6 km/h (2 Bft) S-SW 202 0,2 C -0,2 C
16.02.2012 18:52 2,3 C 86 % 1019,4 hPa 0,0 l/m 4,7 km/h (1 Bft) S-SW 202 0,2 C 1,2 C
16.02.2012 18:57 2,3 C 86 % 1019,4 hPa 0,0 l/m 8,6 km/h (2 Bft) SW 225 0,2 C -0,2 C
16.02.2012 19:02 2,4 C 86 % 1019,4 hPa 0,0 l/m 10,1 km/h (2 Bft) W-SW 247 0,3 C -0,5 C
16.02.2012 19:07 2,4 C 87 % 1019,3 hPa 0,0 l/m 11,9 km/h (2 Bft) SW 225 0,5 C -0,9 C
16.02.2012 19:12 2,4 C 87 % 1019,2 hPa 0,0 l/m 5,8 km/h (2 Bft) W-SW 247 0,5 C 0,8 C
16.02.2012 19:17 2,4 C 87 % 1019,2 hPa 0,0 l/m 7,2 km/h (2 Bft) SW 225 0,5 C 0,3 C
16.02.2012 19:22 2,4 C 87 % 1019,2 hPa 0,0 l/m 9,7 km/h (2 Bft) SW 225 0,5 C -0,4 C
16.02.2012 19:27 2,5 C 87 % 1019,2 hPa 0,0 l/m 18,4 km/h (3 Bft) S 180 0,6 C -1,9 C
16.02.2012 19:32 2,5 C 88 % 1019,2 hPa 0,0 l/m 5,0 km/h (1 Bft) W-SW 247 0,7 C 1,2 C
16.02.2012 19:37 2,5 C 88 % 1018,9 hPa 0,0 l/m 9,7 km/h (2 Bft) W 270 0,7 C -0,3 C
16.02.2012 19:42 2,6 C 88 % 1018,8 hPa 0,0 l/m 10,4 km/h (2 Bft) SW 225 0,8 C -0,3 C
16.02.2012 19:47 2,6 C 88 % 1018,9 hPa 0,0 l/m 13,7 km/h (3 Bft) W-SW 247 0,8 C -1,0 C
16.02.2012 19:52 2,6 C 88 % 1018,8 hPa 0,0 l/m 9,0 km/h (2 Bft) W-SW 247 0,8 C 0,0 C
16.02.2012 19:57 2,6 C 89 % 1018,7 hPa 0,5 l/m 12,2 km/h (2 Bft) W-SW 247 1,0 C -0,7 C
16.02.2012 20:02 2,7 C 89 % 1018,5 hPa 0,0 l/m 6,8 km/h (2 Bft) W 270 1,1 C 0,8 C
16.02.2012 20:07 2,7 C 89 % 1018,6 hPa 0,0 l/m 15,8 km/h (3 Bft) W-SW 247 1,1 C -1,2 C
16.02.2012 20:12 2,8 C 89 % 1018,6 hPa 0,0 l/m 12,2 km/h (2 Bft) W-SW 247 1,2 C -0,4 C
16.02.2012 20:17 2,8 C 89 % 1018,5 hPa 0,0 l/m 19,4 km/h (3 Bft) W 270 1,2 C -1,6 C
16.02.2012 20:22 2,9 C 89 % 1018,4 hPa 0,0 l/m 13,3 km/h (3 Bft) W 270 1,3 C -0,5 C
16.02.2012 20:27 2,9 C 89 % 1018,4 hPa 0,0 l/m 10,1 km/h (2 Bft) SW 225 1,3 C 0,1 C
16.02.2012 20:32 2,9 C 89 % 1018,3 hPa 0,0 l/m 10,8 km/h (2 Bft) W 270 1,3 C -0,0 C
16.02.2012 20:37 2,9 C 90 % 1018,3 hPa 0,0 l/m 8,3 km/h (2 Bft) W-SW 247 1,4 C 0,6 C
16.02.2012 20:42 2,9 C 90 % 1018,2 hPa 0,0 l/m 18,7 km/h (3 Bft) W-SW 247 1,4 C -1,4 C
16.02.2012 20:47 2,9 C 90 % 1018,2 hPa 0,0 l/m 19,4 km/h (3 Bft) W-SW 247 1,4 C -1,5 C
16.02.2012 20:52 2,9 C 90 % 1018,0 hPa 0,0 l/m 11,2 km/h (2 Bft) W 270 1,4 C -0,1 C
16.02.2012 20:57 3,0 C 90 % 1018,2 hPa 0,0 l/m 13,7 km/h (3 Bft) SW 225 1,5 C -0,5 C
16.02.2012 21:02 3,1 C 90 % 1018,0 hPa 0,5 l/m 15,5 km/h (3 Bft) W-NW 292 1,6 C -0,7 C
16.02.2012 21:07 3,1 C 90 % 1018,0 hPa 0,0 l/m 13,7 km/h (3 Bft) W-SW 247 1,6 C -0,4 C
16.02.2012 21:12 3,1 C 90 % 1017,9 hPa 0,0 l/m 8,3 km/h (2 Bft) W 270 1,6 C 0,8 C
16.02.2012 21:17 3,2 C 90 % 1018,0 hPa 0,0 l/m 14,4 km/h (3 Bft) W-SW 247 1,7 C -0,4 C
16.02.2012 21:22 3,2 C 90 % 1017,8 hPa 0,0 l/m 9,7 km/h (2 Bft) W-SW 247 1,7 C 0,6 C
16.02.2012 21:27 3,2 C 90 % 1017,8 hPa 0,0 l/m 13,3 km/h (3 Bft) W-NW 292 1,7 C -0,2 C
16.02.2012 21:32 3,3 C 91 % 1017,8 hPa 0,0 l/m 18,4 km/h (3 Bft) W-SW 247 2,0 C -0,9 C
16.02.2012 21:37 3,3 C 91 % 1017,8 hPa 0,5 l/m 16,9 km/h (3 Bft) W-SW 247 2,0 C -0,6 C
16.02.2012 21:42 3,3 C 91 % 1017,6 hPa 0,0 l/m 11,9 km/h (2 Bft) W-SW 247 2,0 C 0,2 C
16.02.2012 21:47 3,3 C 91 % 1017,5 hPa 0,0 l/m 13,0 km/h (3 Bft) W-SW 247 2,0 C 0,0 C
16.02.2012 21:52 3,4 C 91 % 1017,5 hPa 0,0 l/m 7,2 km/h (2 Bft) W 270 2,1 C 1,5 C
16.02.2012 21:57 3,4 C 91 % 1017,4 hPa 0,0 l/m 12,2 km/h (2 Bft) W 270 2,1 C 0,3 C
16.02.2012 22:02 3,4 C 91 % 1017,5 hPa 0,5 l/m 10,4 km/h (2 Bft) W-SW 247 2,1 C 0,7 C
16.02.2012 22:07 3,4 C 91 % 1017,4 hPa 0,0 l/m 14,0 km/h (3 Bft) W-NW 292 2,1 C -0,1 C
16.02.2012 22:12 3,4 C 91 % 1017,3 hPa 0,0 l/m 10,1 km/h (2 Bft) SW 225 2,1 C 0,7 C
16.02.2012 22:17 3,5 C 91 % 1017,2 hPa 0,0 l/m 12,2 km/h (2 Bft) W-SW 247 2,2 C 0,4 C
16.02.2012 22:22 3,5 C 91 % 1017,2 hPa 0,0 l/m 15,8 km/h (3 Bft) W-NW 292 2,2 C -0,2 C
16.02.2012 22:27 3,5 C 91 % 1017,2 hPa 0,5 l/m 18,7 km/h (3 Bft) W-SW 247 2,2 C -0,7 C
16.02.2012 22:32 3,6 C 91 % 1017,1 hPa 0,0 l/m 7,6 km/h (2 Bft) W 270 2,3 C 1,6 C
16.02.2012 22:37 3,6 C 91 % 1017,2 hPa 0,0 l/m 4,7 km/h (1 Bft) W 270 2,3 C 2,6 C
16.02.2012 22:42 3,6 C 91 % 1017,2 hPa 0,0 l/m 15,5 km/h (3 Bft) W-SW 247 2,3 C -0,1 C
16.02.2012 22:47 3,6 C 91 % 1017,1 hPa 0,5 l/m 9,0 km/h (2 Bft) W 270 2,3 C 1,2 C
16.02.2012 22:52 3,6 C 91 % 1017,1 hPa 0,0 l/m 10,4 km/h (2 Bft) W 270 2,3 C 0,9 C
16.02.2012 22:57 3,6 C 91 % 1017,1 hPa 0,0 l/m 9,4 km/h (2 Bft) W-SW 247 2,3 C 1,1 C
16.02.2012 23:02 3,6 C 91 % 1017,0 hPa 0,0 l/m 10,1 km/h (2 Bft) W-NW 292 2,3 C 1,0 C
16.02.2012 23:07 3,7 C 91 % 1017,1 hPa 0,5 l/m 10,1 km/h (2 Bft) W 270 2,4 C 1,1 C
16.02.2012 23:12 3,8 C 91 % 1017,1 hPa 0,0 l/m 5,8 km/h (2 Bft) W 270 2,5 C 2,4 C
16.02.2012 23:17 3,8 C 91 % 1017,1 hPa 0,0 l/m 5,8 km/h (2 Bft) W-NW 292 2,5 C 2,4 C
16.02.2012 23:22 3,8 C 92 % 1017,0 hPa 0,0 l/m 5,8 km/h (2 Bft) W 270 2,6 C 2,4 C
16.02.2012 23:27 3,9 C 92 % 1017,1 hPa 0,5 l/m 16,9 km/h (3 Bft) W-NW 292 2,7 C 0,1 C
16.02.2012 23:32 3,9 C 92 % 1017,0 hPa 0,0 l/m 5,0 km/h (1 Bft) W 270 2,7 C 2,8 C
16.02.2012 23:37 3,9 C 92 % 1017,0 hPa 0,0 l/m 14,4 km/h (3 Bft) W-NW 292 2,7 C 0,5 C
16.02.2012 23:42 3,9 C 92 % 1016,9 hPa 0,0 l/m 15,5 km/h (3 Bft) NW 315 2,7 C 0,3 C
16.02.2012 23:47 4,1 C 92 % 1016,9 hPa 0,0 l/m 12,6 km/h (3 Bft) W 270 2,9 C 1,1 C
16.02.2012 23:52 4,1 C 92 % 1016,8 hPa 0,0 l/m 13,7 km/h (3 Bft) NW 315 2,9 C 0,9 C
16.02.2012 23:57 4,1 C 92 % 1016,9 hPa 0,5 l/m 9,7 km/h (2 Bft) W-NW 292 2,9 C 1,7 C
_ Min-Zeit 06:17 12:57 00:02 - 01:02 - - 06:17 06:27
Minimum _ -2,6 C 70 % 1013,8 hPa - 0,0 km/h (0 Bft) - - -5,7 C -5,1 C
_ Max-Zeit 23:47 23:22 11:42 17:57 20:17 - - 23:47 13:27
Maximum _ 4,1 C 92 % 1022,4 hPa 0,5 l/m 19,4 km/h
W (3 Bft)
- - 2,9 C 3,3 C
Durchschnitt _ 0,9 C 80 % 1019,1 hPa #5,7 l/m 6,7 km/h (2 Bft) W-SW - -2,2 C -0,6 C
(c) by David Heller